createdAt,value
2017-11-30T00:00:18.409Z,1.49
2017-11-30T00:01:18.381Z,1.50
2017-11-30T00:02:18.355Z,1.52
2017-11-30T00:03:18.328Z,1.52
2017-11-30T00:04:18.303Z,1.49
2017-11-30T00:05:18.275Z,1.49
2017-11-30T00:06:18.248Z,1.44
2017-11-30T00:07:18.222Z,1.44
2017-11-30T00:08:18.196Z,1.49
2017-11-30T00:09:18.169Z,1.59
2017-11-30T00:10:18.142Z,1.56
2017-11-30T00:11:18.115Z,1.58
2017-11-30T00:12:18.088Z,1.58
2017-11-30T00:13:18.062Z,1.55
2017-11-30T00:14:18.034Z,1.59
2017-11-30T00:15:18.012Z,1.58
2017-11-30T00:16:17.990Z,1.60
2017-11-30T00:17:17.955Z,1.52
2017-11-30T00:18:17.927Z,1.52
2017-11-30T00:19:17.906Z,1.50
2017-11-30T00:20:17.876Z,1.67
2017-11-30T00:21:17.849Z,1.63
2017-11-30T00:22:17.822Z,1.58
2017-11-30T00:23:17.798Z,1.55
2017-11-30T00:24:17.769Z,1.49
2017-11-30T00:25:17.744Z,1.49
2017-11-30T00:26:17.717Z,1.48
2017-11-30T00:27:17.696Z,1.48
2017-11-30T00:28:17.676Z,1.50
2017-11-30T00:29:17.634Z,1.42
2017-11-30T00:30:17.608Z,1.44
2017-11-30T00:31:17.585Z,1.44
2017-11-30T00:32:17.558Z,1.52
2017-11-30T00:33:17.528Z,1.50
2017-11-30T00:34:17.501Z,1.52
2017-11-30T00:35:17.475Z,1.52
2017-11-30T00:36:17.448Z,1.50
2017-11-30T00:37:17.427Z,1.50
2017-11-30T00:38:17.396Z,1.49
2017-11-30T00:39:17.368Z,1.50
2017-11-30T00:40:17.343Z,1.52
2017-11-30T00:41:17.314Z,1.52
2017-11-30T00:42:17.288Z,1.52
2017-11-30T00:43:17.259Z,1.56
2017-11-30T00:44:17.238Z,1.48
2017-11-30T00:45:17.209Z,1.49
2017-11-30T00:46:17.181Z,1.50
2017-11-30T00:47:17.155Z,1.53
2017-11-30T00:48:17.129Z,1.53
2017-11-30T00:49:17.101Z,1.52
2017-11-30T00:50:17.077Z,1.48
2017-11-30T00:51:17.048Z,1.45
2017-11-30T00:52:17.022Z,1.50
2017-11-30T00:53:16.995Z,1.48
2017-11-30T00:54:16.969Z,1.49
2017-11-30T00:55:16.942Z,1.49
2017-11-30T00:56:16.912Z,1.52
2017-11-30T00:57:16.888Z,1.52
2017-11-30T00:58:16.860Z,1.49
2017-11-30T00:59:16.834Z,1.53
2017-11-30T01:00:16.805Z,1.55
2017-11-30T01:01:16.798Z,1.48
2017-11-30T01:02:16.753Z,1.50
2017-11-30T01:03:16.728Z,1.56
2017-11-30T01:04:16.701Z,1.52
2017-11-30T01:05:16.674Z,1.58
2017-11-30T01:06:16.645Z,1.59
2017-11-30T01:07:16.620Z,1.59
2017-11-30T01:08:16.595Z,1.60
2017-11-30T01:09:16.568Z,1.60
2017-11-30T01:10:16.540Z,1.53
2017-11-30T01:11:16.521Z,1.55
2017-11-30T01:12:16.487Z,1.60
2017-11-30T01:13:16.464Z,1.63
2017-11-30T01:14:16.433Z,1.55
2017-11-30T01:15:16.404Z,1.66
2017-11-30T01:16:16.381Z,1.60
2017-11-30T01:17:16.353Z,1.70
2017-11-30T01:18:16.325Z,1.67
2017-11-30T01:19:16.299Z,1.68
2017-11-30T01:20:16.273Z,1.68
2017-11-30T01:21:16.245Z,1.59
2017-11-30T01:22:16.218Z,1.60
2017-11-30T01:23:16.191Z,1.63
2017-11-30T01:24:16.164Z,1.66
2017-11-30T01:25:16.140Z,1.58
2017-11-30T01:26:16.109Z,1.68
2017-11-30T01:27:16.085Z,1.66
2017-11-30T01:28:16.058Z,1.66
2017-11-30T01:29:16.032Z,1.58
2017-11-30T01:30:16.002Z,1.68
2017-11-30T01:31:15.978Z,1.63
2017-11-30T01:32:15.950Z,1.66
2017-11-30T01:33:15.921Z,1.68
2017-11-30T01:34:15.897Z,1.62
2017-11-30T01:35:15.876Z,1.63
2017-11-30T01:36:15.850Z,1.63
2017-11-30T01:37:15.818Z,1.63
2017-11-30T01:38:15.791Z,1.63
2017-11-30T01:39:15.763Z,1.68
2017-11-30T01:40:15.736Z,1.73
2017-11-30T01:41:15.712Z,1.70
2017-11-30T01:42:15.684Z,1.62
2017-11-30T01:43:15.657Z,1.80
2017-11-30T01:44:15.629Z,1.80
2017-11-30T01:45:15.605Z,1.80
2017-11-30T01:46:15.576Z,1.80
2017-11-30T01:47:15.550Z,1.84
2017-11-30T01:48:15.522Z,1.81
2017-11-30T01:49:15.496Z,1.81
2017-11-30T01:50:15.470Z,1.87
2017-11-30T01:51:15.442Z,1.84
2017-11-30T01:52:15.418Z,1.88
2017-11-30T01:53:15.393Z,1.84
2017-11-30T01:54:15.362Z,1.78
2017-11-30T01:55:15.335Z,1.84
2017-11-30T01:56:15.310Z,1.78
2017-11-30T01:57:15.284Z,1.78
2017-11-30T01:58:15.257Z,1.74
2017-11-30T01:59:15.230Z,1.81
2017-11-30T02:00:15.203Z,1.78
2017-11-30T02:01:15.175Z,1.81
2017-11-30T02:02:15.150Z,1.78
2017-11-30T02:03:15.134Z,1.73
2017-11-30T02:04:15.096Z,1.80
2017-11-30T02:05:15.071Z,1.78
2017-11-30T02:06:15.043Z,1.81
2017-11-30T02:07:15.016Z,1.81
2017-11-30T02:08:14.989Z,1.80
2017-11-30T02:09:14.963Z,1.84
2017-11-30T02:10:14.936Z,1.76
2017-11-30T02:11:14.909Z,1.78
2017-11-30T02:12:14.882Z,1.80
2017-11-30T02:13:14.854Z,1.78
2017-11-30T02:14:14.829Z,1.84
2017-11-30T02:15:14.802Z,1.84
2017-11-30T02:16:14.776Z,1.88
2017-11-30T02:17:14.749Z,1.80
2017-11-30T02:18:14.723Z,1.81
2017-11-30T02:19:14.696Z,1.77
2017-11-30T02:20:14.669Z,1.81
2017-11-30T02:21:14.643Z,1.81
2017-11-30T02:22:14.617Z,1.80
2017-11-30T02:23:14.587Z,1.84
2017-11-30T02:24:14.561Z,1.78
2017-11-30T02:25:14.538Z,1.87
2017-11-30T02:26:14.510Z,1.84
2017-11-30T02:27:14.483Z,1.80
2017-11-30T02:28:14.455Z,1.78
2017-11-30T02:29:14.430Z,1.81
2017-11-30T02:30:14.405Z,1.78
2017-11-30T02:31:14.380Z,1.78
2017-11-30T02:32:14.350Z,1.78
2017-11-30T02:33:14.323Z,1.77
2017-11-30T02:34:14.297Z,1.70
2017-11-30T02:35:14.268Z,1.73
2017-11-30T02:36:14.243Z,1.71
2017-11-30T02:37:14.218Z,1.74
2017-11-30T02:38:14.189Z,1.73
2017-11-30T02:39:14.163Z,1.66
2017-11-30T02:40:14.140Z,1.63
2017-11-30T02:41:14.114Z,1.63
2017-11-30T02:42:14.083Z,1.70
2017-11-30T02:43:17.224Z,1.80
2017-11-30T02:44:14.034Z,1.70
2017-11-30T02:45:14.004Z,1.71
2017-11-30T02:46:13.981Z,1.76
2017-11-30T02:47:13.950Z,1.76
2017-11-30T02:48:13.929Z,1.68
2017-11-30T02:49:13.896Z,1.70
2017-11-30T02:50:13.870Z,1.68
2017-11-30T02:51:13.847Z,1.67
2017-11-30T02:52:13.816Z,1.67
2017-11-30T02:53:13.790Z,1.67
2017-11-30T02:54:13.765Z,1.70
2017-11-30T02:55:13.737Z,1.77
2017-11-30T02:56:13.710Z,1.78
2017-11-30T02:57:13.680Z,1.77
2017-11-30T02:58:13.654Z,1.76
2017-11-30T02:59:13.627Z,1.78
2017-11-30T03:00:13.603Z,1.80
2017-11-30T03:01:13.573Z,1.78
2017-11-30T03:02:13.547Z,1.84
2017-11-30T03:03:13.519Z,1.81
2017-11-30T03:04:13.493Z,1.80
2017-11-30T03:05:13.467Z,1.81
2017-11-30T03:06:13.446Z,1.78
2017-11-30T03:07:13.410Z,1.88
2017-11-30T03:08:13.390Z,1.78
2017-11-30T03:09:13.359Z,1.81
2017-11-30T03:10:13.334Z,1.78
2017-11-30T03:11:13.306Z,1.78
2017-11-30T03:12:13.280Z,1.84
2017-11-30T03:13:13.257Z,1.80
2017-11-30T03:14:13.223Z,1.66
2017-11-30T03:15:13.199Z,1.78
2017-11-30T03:16:13.171Z,1.77
2017-11-30T03:17:13.149Z,1.67
2017-11-30T03:18:13.118Z,1.67
2017-11-30T03:19:13.088Z,1.71
2017-11-30T03:20:13.063Z,1.63
2017-11-30T03:21:13.038Z,1.77
2017-11-30T03:22:13.007Z,1.70
2017-11-30T03:23:12.985Z,1.60
2017-11-30T03:24:12.959Z,1.62
2017-11-30T03:25:12.930Z,1.70
2017-11-30T03:26:12.903Z,1.68
2017-11-30T03:27:12.875Z,1.58
2017-11-30T03:28:12.857Z,1.68
2017-11-30T03:29:12.823Z,1.63
2017-11-30T03:30:12.796Z,1.60
2017-11-30T03:31:12.770Z,1.63
2017-11-30T03:32:12.746Z,1.53
2017-11-30T03:33:12.715Z,1.70
2017-11-30T03:34:12.688Z,1.58
2017-11-30T03:35:12.660Z,1.58
2017-11-30T03:36:12.633Z,1.58
2017-11-30T03:37:12.608Z,1.58
2017-11-30T03:38:12.580Z,1.56
2017-11-30T03:39:12.554Z,1.56
2017-11-30T03:40:12.524Z,1.52
2017-11-30T03:41:12.500Z,1.60
2017-11-30T03:42:12.472Z,1.55
2017-11-30T03:43:12.446Z,1.58
2017-11-30T03:44:12.419Z,1.56
2017-11-30T03:45:12.392Z,1.56
2017-11-30T03:46:12.366Z,1.55
2017-11-30T03:47:12.337Z,1.48
2017-11-30T03:48:12.310Z,1.48
2017-11-30T03:49:12.284Z,1.44
2017-11-30T03:50:12.256Z,1.45
2017-11-30T03:51:12.225Z,1.45
2017-11-30T03:52:12.201Z,1.41
2017-11-30T03:53:12.174Z,1.42
2017-11-30T03:54:12.148Z,1.41
2017-11-30T03:55:12.119Z,1.37
2017-11-30T03:56:12.094Z,1.34
2017-11-30T03:57:12.070Z,1.35
2017-11-30T03:58:12.040Z,1.44
2017-11-30T03:59:12.016Z,1.40
2017-11-30T04:00:11.996Z,1.32
2017-11-30T04:01:11.958Z,1.42
2017-11-30T04:02:11.930Z,1.42
2017-11-30T04:03:11.902Z,1.40
2017-11-30T04:04:11.877Z,1.40
2017-11-30T04:05:11.850Z,1.37
2017-11-30T04:06:11.821Z,1.30
2017-11-30T04:07:11.804Z,1.22
2017-11-30T04:08:11.770Z,1.17
2017-11-30T04:09:11.741Z,1.20
2017-11-30T04:10:11.712Z,1.24
2017-11-30T04:11:11.699Z,1.24
2017-11-30T04:12:11.658Z,1.24
2017-11-30T04:13:11.631Z,1.22
2017-11-30T04:14:11.602Z,1.23
2017-11-30T04:15:11.576Z,1.10
2017-11-30T04:16:11.548Z,1.16
2017-11-30T04:17:11.522Z,1.16
2017-11-30T04:18:11.492Z,1.16
2017-11-30T04:19:11.467Z,1.17
2017-11-30T04:20:11.438Z,1.14
2017-11-30T04:21:11.413Z,1.19
2017-11-30T04:22:11.385Z,1.12
2017-11-30T04:23:11.353Z,1.12
2017-11-30T04:24:11.330Z,1.17
2017-11-30T04:25:11.301Z,1.13
2017-11-30T04:26:11.273Z,1.08
2017-11-30T04:27:11.246Z,1.05
2017-11-30T04:28:11.219Z,1.08
2017-11-30T04:29:11.191Z,1.10
2017-11-30T04:30:11.164Z,1.10
2017-11-30T04:31:11.137Z,1.12
2017-11-30T04:32:11.109Z,1.13
2017-11-30T04:33:11.080Z,1.13
2017-11-30T04:34:11.064Z,1.12
2017-11-30T04:35:11.024Z,1.12
2017-11-30T04:36:10.997Z,1.17
2017-11-30T04:37:10.970Z,1.12
2017-11-30T04:38:10.942Z,1.19
2017-11-30T04:39:10.912Z,1.12
2017-11-30T04:40:10.888Z,1.16
2017-11-30T04:41:10.858Z,1.16
2017-11-30T04:42:10.832Z,1.19
2017-11-30T04:43:10.804Z,1.20
2017-11-30T04:44:10.816Z,1.23
2017-11-30T04:45:10.749Z,1.22
2017-11-30T04:46:10.727Z,1.28
2017-11-30T04:47:10.694Z,1.17
2017-11-30T04:48:10.668Z,1.30
2017-11-30T04:49:10.644Z,1.23
2017-11-30T04:50:10.611Z,1.20
2017-11-30T04:51:10.584Z,1.23
2017-11-30T04:52:10.557Z,1.30
2017-11-30T04:53:10.529Z,1.24
2017-11-30T04:54:10.501Z,1.37
2017-11-30T04:55:10.480Z,1.35
2017-11-30T04:56:10.450Z,1.37
2017-11-30T04:57:10.420Z,1.42
2017-11-30T04:58:10.393Z,1.30
2017-11-30T04:59:10.366Z,1.37
2017-11-30T05:00:10.339Z,1.35
2017-11-30T05:01:10.312Z,1.28
2017-11-30T05:02:10.282Z,1.26
2017-11-30T05:03:10.256Z,1.34
2017-11-30T05:04:10.229Z,1.37
2017-11-30T05:05:10.202Z,1.34
2017-11-30T05:06:10.173Z,1.32
2017-11-30T05:07:10.152Z,1.30
2017-11-30T05:08:10.119Z,1.32
2017-11-30T05:09:10.092Z,1.32
2017-11-30T05:10:10.064Z,1.32
2017-11-30T05:11:10.043Z,1.38
2017-11-30T05:12:10.014Z,1.30
2017-11-30T05:13:09.989Z,1.32
2017-11-30T05:14:09.951Z,1.32
2017-11-30T05:15:09.926Z,1.37
2017-11-30T05:16:09.900Z,1.23
2017-11-30T05:17:09.872Z,1.34
2017-11-30T05:18:09.845Z,1.30
2017-11-30T05:19:09.817Z,1.32
2017-11-30T05:20:09.790Z,1.32
2017-11-30T05:21:09.764Z,1.30
2017-11-30T05:22:09.734Z,1.32
2017-11-30T05:23:09.710Z,1.23
2017-11-30T05:24:09.681Z,1.34
2017-11-30T05:25:09.654Z,1.32
2017-11-30T05:26:09.627Z,1.24
2017-11-30T05:27:09.598Z,1.23
2017-11-30T05:28:09.572Z,1.28
2017-11-30T05:29:09.545Z,1.24
2017-11-30T05:30:09.517Z,1.26
2017-11-30T05:31:09.491Z,1.23
2017-11-30T05:32:09.463Z,1.22
2017-11-30T05:33:09.437Z,1.14
2017-11-30T05:34:09.410Z,1.19
2017-11-30T05:35:09.380Z,1.13
2017-11-30T05:36:09.354Z,1.17
2017-11-30T05:37:09.327Z,1.13
2017-11-30T05:38:09.297Z,1.14
2017-11-30T05:39:09.271Z,1.13
2017-11-30T05:40:09.248Z,1.16
2017-11-30T05:41:09.216Z,1.12
2017-11-30T05:42:09.189Z,1.13
2017-11-30T05:43:09.161Z,1.19
2017-11-30T05:44:09.138Z,1.16
2017-11-30T05:45:09.104Z,1.14
2017-11-30T05:46:09.079Z,1.12
2017-11-30T05:47:09.050Z,1.13
2017-11-30T05:48:09.031Z,1.10
2017-11-30T05:49:08.998Z,1.14
2017-11-30T05:50:08.967Z,1.19
2017-11-30T05:51:08.941Z,1.20
2017-11-30T05:52:08.912Z,1.24
2017-11-30T05:53:08.886Z,1.24
2017-11-30T05:54:08.857Z,1.34
2017-11-30T05:55:08.833Z,1.30
2017-11-30T05:56:08.803Z,1.26
2017-11-30T05:57:08.776Z,1.34
2017-11-30T05:58:08.747Z,1.31
2017-11-30T05:59:08.721Z,1.34
2017-11-30T06:00:08.693Z,1.34
2017-11-30T06:01:08.666Z,1.24
2017-11-30T06:02:08.637Z,1.34
2017-11-30T06:03:08.611Z,1.34
2017-11-30T06:04:08.584Z,1.35
2017-11-30T06:05:08.557Z,1.40
2017-11-30T06:06:08.528Z,1.38
2017-11-30T06:07:08.502Z,1.41
2017-11-30T06:08:08.475Z,1.38
2017-11-30T06:09:08.444Z,1.35
2017-11-30T06:10:08.419Z,1.30
2017-11-30T06:11:08.391Z,1.30
2017-11-30T06:12:08.362Z,1.38
2017-11-30T06:13:08.337Z,1.34
2017-11-30T06:14:08.308Z,1.26
2017-11-30T06:15:08.280Z,1.34
2017-11-30T06:16:08.255Z,1.32
2017-11-30T06:17:08.228Z,1.37
2017-11-30T06:18:08.198Z,1.40
2017-11-30T06:19:08.173Z,1.34
2017-11-30T06:20:08.145Z,1.40
2017-11-30T06:21:08.120Z,1.31
2017-11-30T06:22:08.097Z,1.45
2017-11-30T06:23:08.063Z,1.41
2017-11-30T06:24:08.037Z,1.35
2017-11-30T06:25:08.009Z,1.34
2017-11-30T06:26:07.983Z,1.34
2017-11-30T06:27:07.954Z,1.41
2017-11-30T06:28:07.936Z,1.35
2017-11-30T06:29:07.901Z,1.31
2017-11-30T06:30:07.873Z,1.37
2017-11-30T06:31:07.848Z,1.32
2017-11-30T06:32:07.819Z,1.38
2017-11-30T06:33:07.793Z,1.32
2017-11-30T06:34:07.766Z,1.41
2017-11-30T06:35:07.738Z,1.32
2017-11-30T06:36:07.714Z,1.38
2017-11-30T06:37:07.682Z,1.38
2017-11-30T06:38:07.657Z,1.40
2017-11-30T06:39:07.629Z,1.38
2017-11-30T06:40:07.601Z,1.34
2017-11-30T06:41:07.573Z,1.44
2017-11-30T06:42:07.547Z,1.40
2017-11-30T06:43:07.518Z,1.40
2017-11-30T06:44:07.492Z,1.44
2017-11-30T06:45:07.466Z,1.53
2017-11-30T06:46:07.437Z,1.50
2017-11-30T06:47:07.409Z,1.45
2017-11-30T06:48:07.389Z,1.49
2017-11-30T06:49:07.357Z,1.44
2017-11-30T06:50:07.329Z,1.50
2017-11-30T06:51:07.301Z,1.53
2017-11-30T06:52:07.276Z,1.52
2017-11-30T06:53:07.250Z,1.44
2017-11-30T06:54:07.220Z,1.49
2017-11-30T06:55:07.192Z,1.44
2017-11-30T06:56:07.169Z,1.45
2017-11-30T06:57:07.139Z,1.44
2017-11-30T06:58:07.111Z,1.44
2017-11-30T06:59:07.086Z,1.42
2017-11-30T07:00:07.058Z,1.42
2017-11-30T07:01:07.035Z,1.49
2017-11-30T07:02:07.004Z,1.49
2017-11-30T07:03:06.975Z,1.59
2017-11-30T07:04:06.949Z,1.52
2017-11-30T07:05:06.923Z,1.66
2017-11-30T07:06:06.892Z,1.60
2017-11-30T07:07:06.867Z,1.58
2017-11-30T07:08:06.842Z,1.52
2017-11-30T07:09:06.812Z,1.50
2017-11-30T07:10:06.787Z,1.59
2017-11-30T07:11:06.760Z,1.50
2017-11-30T07:12:06.735Z,1.50
2017-11-30T07:13:06.705Z,1.58
2017-11-30T07:14:06.679Z,1.58
2017-11-30T07:15:06.651Z,1.59
2017-11-30T07:16:06.623Z,1.66
2017-11-30T07:17:06.603Z,1.60
2017-11-30T07:18:06.579Z,1.62
2017-11-30T07:19:06.553Z,1.63
2017-11-30T07:20:06.517Z,1.62
2017-11-30T07:21:06.492Z,1.59
2017-11-30T07:22:06.461Z,1.58
2017-11-30T07:23:06.434Z,1.53
2017-11-30T07:24:06.408Z,1.53
2017-11-30T07:25:06.378Z,1.63
2017-11-30T07:26:06.352Z,1.67
2017-11-30T07:27:06.325Z,1.66
2017-11-30T07:28:06.298Z,1.66
2017-11-30T07:29:06.273Z,1.62
2017-11-30T07:30:06.250Z,1.67
2017-11-30T07:31:06.215Z,1.60
2017-11-30T07:32:06.190Z,1.66
2017-11-30T07:33:06.163Z,1.62
2017-11-30T07:34:06.136Z,1.68
2017-11-30T07:35:06.108Z,1.68
2017-11-30T07:36:06.082Z,1.70
2017-11-30T07:37:06.055Z,1.70
2017-11-30T07:38:06.025Z,1.68
2017-11-30T07:39:06.000Z,1.68
2017-11-30T07:40:05.974Z,1.66
2017-11-30T07:41:05.953Z,1.67
2017-11-30T07:42:05.918Z,1.62
2017-11-30T07:43:05.890Z,1.66
2017-11-30T07:44:05.871Z,1.70
2017-11-30T07:45:05.843Z,1.70
2017-11-30T07:46:05.807Z,1.66
2017-11-30T07:47:05.784Z,1.70
2017-11-30T07:48:05.757Z,1.63
2017-11-30T07:49:05.731Z,1.76
2017-11-30T07:50:05.703Z,1.77
2017-11-30T07:51:05.683Z,1.77
2017-11-30T07:52:05.653Z,1.84
2017-11-30T07:53:05.621Z,1.80
2017-11-30T07:54:05.596Z,1.84
2017-11-30T07:55:05.563Z,1.85
2017-11-30T07:56:05.542Z,1.78
2017-11-30T07:57:05.516Z,1.91
2017-11-30T07:58:05.486Z,1.99
2017-11-30T07:59:05.460Z,1.91
2017-11-30T08:00:05.432Z,1.89
2017-11-30T08:01:05.405Z,1.85
2017-11-30T08:02:05.388Z,1.81
2017-11-30T08:03:05.352Z,1.91
2017-11-30T08:04:05.322Z,1.95
2017-11-30T08:05:05.296Z,1.92
2017-11-30T08:06:05.268Z,1.95
2017-11-30T08:07:05.242Z,1.92
2017-11-30T08:08:05.217Z,1.85
2017-11-30T08:09:05.189Z,1.91
2017-11-30T08:10:05.163Z,1.91
2017-11-30T08:11:05.135Z,1.99
2017-11-30T08:12:05.110Z,2.02
2017-11-30T08:13:05.083Z,2.02
2017-11-30T08:14:05.057Z,1.91
2017-11-30T08:15:05.032Z,1.94
2017-11-30T08:16:05.005Z,1.89
2017-11-30T08:17:04.974Z,2.00
2017-11-30T08:18:04.945Z,2.02
2017-11-30T08:19:04.926Z,2.06
2017-11-30T08:20:04.894Z,2.02
2017-11-30T08:21:04.868Z,2.11
2017-11-30T08:22:04.839Z,2.00
2017-11-30T08:23:04.811Z,2.04
2017-11-30T08:24:04.787Z,2.02
2017-11-30T08:25:04.759Z,2.00
2017-11-30T08:26:04.731Z,1.99
2017-11-30T08:27:04.706Z,1.94
2017-11-30T08:28:04.678Z,2.07
2017-11-30T08:29:04.653Z,2.13
2017-11-30T08:30:04.624Z,2.06
2017-11-30T08:31:04.599Z,2.13
2017-11-30T08:32:04.570Z,2.15
2017-11-30T08:33:04.545Z,2.15
2017-11-30T08:34:04.522Z,2.14
2017-11-30T08:35:04.493Z,2.18
2017-11-30T08:36:04.465Z,2.13
2017-11-30T08:37:04.439Z,2.08
2017-11-30T08:38:04.411Z,2.13
2017-11-30T08:39:04.383Z,2.15
2017-11-30T08:40:04.355Z,2.17
2017-11-30T08:41:04.332Z,2.17
2017-11-30T08:42:04.304Z,2.14
2017-11-30T08:43:04.281Z,2.26
2017-11-30T08:44:04.249Z,2.25
2017-11-30T08:45:04.227Z,2.28
2017-11-30T08:46:04.196Z,2.29
2017-11-30T08:47:04.170Z,2.35
2017-11-30T08:48:04.152Z,2.32
2017-11-30T08:49:04.116Z,2.36
2017-11-30T08:50:04.090Z,2.49
2017-11-30T08:51:04.065Z,2.44
2017-11-30T08:52:04.035Z,2.47
2017-11-30T08:53:04.013Z,2.36
2017-11-30T08:54:03.985Z,2.47
2017-11-30T08:55:03.959Z,2.42
2017-11-30T08:56:03.929Z,2.51
2017-11-30T08:57:03.907Z,2.53
2017-11-30T08:58:03.881Z,2.46
2017-11-30T08:59:03.853Z,2.44
2017-11-30T09:00:03.828Z,2.38
2017-11-30T09:01:03.802Z,2.38
2017-11-30T09:02:03.774Z,2.47
2017-11-30T09:03:03.759Z,2.53
2017-11-30T09:04:03.727Z,2.57
2017-11-30T09:05:03.698Z,2.53
2017-11-30T09:06:03.668Z,2.49
2017-11-30T09:07:03.644Z,2.53
2017-11-30T09:08:03.617Z,2.60
2017-11-30T09:09:03.591Z,2.53
2017-11-30T09:10:03.572Z,2.57
2017-11-30T09:11:03.540Z,2.61
2017-11-30T09:12:03.513Z,2.57
2017-11-30T09:13:03.487Z,2.69
2017-11-30T09:14:03.460Z,2.56
2017-11-30T09:15:03.432Z,2.62
2017-11-30T09:16:03.408Z,2.53
2017-11-30T09:17:03.382Z,2.62
2017-11-30T09:18:03.353Z,2.54
2017-11-30T09:19:03.329Z,2.61
2017-11-30T09:20:03.307Z,2.61
2017-11-30T09:21:03.277Z,2.61
2017-11-30T09:22:03.250Z,2.64
2017-11-30T09:23:03.227Z,2.64
2017-11-30T09:24:03.200Z,2.67
2017-11-30T09:25:03.183Z,2.65
2017-11-30T09:26:03.147Z,2.62
2017-11-30T09:27:03.121Z,2.69
2017-11-30T09:28:03.095Z,2.62
2017-11-30T09:29:03.069Z,2.65
2017-11-30T09:30:03.042Z,2.72
2017-11-30T09:31:03.016Z,2.74
2017-11-30T09:32:02.990Z,2.83
2017-11-30T09:33:02.966Z,2.79
2017-11-30T09:34:02.937Z,2.77
2017-11-30T09:35:02.915Z,2.86
2017-11-30T09:36:02.886Z,2.80
2017-11-30T09:37:02.866Z,2.82
2017-11-30T09:38:02.832Z,2.77
2017-11-30T09:39:02.805Z,2.87
2017-11-30T09:40:02.782Z,2.87
2017-11-30T09:41:02.755Z,2.95
2017-11-30T09:42:02.727Z,2.86
2017-11-30T09:43:02.704Z,2.92
2017-11-30T09:44:02.675Z,2.92
2017-11-30T09:45:02.652Z,2.93
2017-11-30T09:46:02.624Z,2.92
2017-11-30T09:47:02.595Z,2.80
2017-11-30T09:48:02.575Z,2.85
2017-11-30T09:49:02.547Z,2.83
2017-11-30T09:50:02.517Z,2.77
2017-11-30T09:51:02.493Z,2.92
2017-11-30T09:52:02.467Z,2.85
2017-11-30T09:53:02.442Z,2.90
2017-11-30T09:54:02.415Z,2.87
2017-11-30T09:55:02.389Z,2.93
2017-11-30T09:56:02.363Z,2.92
2017-11-30T09:57:02.336Z,2.95
2017-11-30T09:58:02.310Z,2.95
2017-11-30T09:59:02.284Z,3.04
2017-11-30T10:00:02.259Z,3.04
2017-11-30T10:01:02.234Z,3.01
2017-11-30T10:02:02.205Z,3.05
2017-11-30T10:03:02.180Z,2.97
2017-11-30T10:04:02.153Z,3.05
2017-11-30T10:05:02.129Z,3.01
2017-11-30T10:06:02.105Z,3.03
2017-11-30T10:07:02.089Z,3.03
2017-11-30T10:08:02.051Z,3.08
2017-11-30T10:09:02.032Z,3.04
2017-11-30T10:10:01.998Z,3.04
2017-11-30T10:11:01.973Z,3.11
2017-11-30T10:12:01.947Z,3.04
2017-11-30T10:13:01.920Z,3.03
2017-11-30T10:14:01.894Z,3.10
2017-11-30T10:15:01.866Z,3.08
2017-11-30T10:16:01.847Z,3.13
2017-11-30T10:17:01.815Z,3.16
2017-11-30T10:18:01.791Z,3.18
2017-11-30T10:19:01.763Z,3.13
2017-11-30T10:20:01.739Z,3.13
2017-11-30T10:21:01.712Z,3.13
2017-11-30T10:22:01.691Z,3.19
2017-11-30T10:23:01.660Z,3.18
2017-11-30T10:24:01.636Z,3.05
2017-11-30T10:25:01.609Z,3.18
2017-11-30T10:26:01.585Z,3.14
2017-11-30T10:27:01.556Z,3.23
2017-11-30T10:28:01.531Z,3.07
2017-11-30T10:29:01.507Z,3.11
2017-11-30T10:30:01.478Z,3.04
2017-11-30T10:31:01.451Z,3.05
2017-11-30T10:32:01.426Z,3.10
2017-11-30T10:33:01.401Z,3.11
2017-11-30T10:34:01.373Z,3.16
2017-11-30T10:35:01.351Z,3.19
2017-11-30T10:36:01.323Z,3.21
2017-11-30T10:37:01.296Z,3.22
2017-11-30T10:38:01.269Z,3.25
2017-11-30T10:39:01.251Z,3.28
2017-11-30T10:40:01.222Z,3.31
2017-11-30T10:41:01.197Z,3.26
2017-11-30T10:42:01.166Z,3.25
2017-11-30T10:43:01.140Z,3.31
2017-11-30T10:44:01.115Z,3.28
2017-11-30T10:45:01.090Z,3.31
2017-11-30T10:46:01.063Z,3.28
2017-11-30T10:47:01.035Z,3.31
2017-11-30T10:48:01.013Z,3.28
2017-11-30T10:49:00.983Z,3.29
2017-11-30T10:50:00.958Z,3.28
2017-11-30T10:51:00.932Z,3.32
2017-11-30T10:52:00.910Z,3.28
2017-11-30T10:53:00.881Z,3.40
2017-11-30T10:54:00.859Z,3.41
2017-11-30T10:55:00.827Z,3.34
2017-11-30T10:56:00.817Z,3.37
2017-11-30T10:57:00.788Z,3.42
2017-11-30T10:58:00.749Z,3.42
2017-11-30T10:59:00.726Z,3.47
2017-11-30T11:00:00.701Z,3.48
2017-11-30T11:01:00.673Z,3.44
2017-11-30T11:02:00.709Z,3.42
2017-11-30T11:03:00.618Z,3.44
2017-11-30T11:04:00.597Z,3.44
2017-11-30T11:05:00.569Z,3.42
2017-11-30T11:06:00.543Z,3.47
2017-11-30T11:07:00.516Z,3.53
2017-11-30T11:08:00.494Z,3.48
2017-11-30T11:09:00.474Z,3.55
2017-11-30T11:10:00.440Z,3.47
2017-11-30T11:11:00.413Z,3.50
2017-11-30T11:12:00.389Z,3.51
2017-11-30T11:13:00.383Z,3.56
2017-11-30T11:14:00.337Z,3.48
2017-11-30T11:15:00.310Z,3.55
2017-11-30T11:16:00.285Z,3.53
2017-11-30T11:17:00.258Z,3.62
2017-11-30T11:18:00.237Z,3.58
2017-11-30T11:19:00.204Z,3.69
2017-11-30T11:20:00.182Z,3.65
2017-11-30T11:21:00.157Z,3.78
2017-11-30T11:22:00.131Z,3.69
2017-11-30T11:23:00.104Z,3.74
2017-11-30T11:24:00.078Z,3.74
2017-11-30T11:25:00.054Z,3.73
2017-11-30T11:26:00.028Z,3.76
2017-11-30T11:27:00.005Z,3.76
2017-11-30T11:27:59.976Z,3.74
2017-11-30T11:28:59.952Z,3.78
2017-11-30T11:29:59.922Z,3.88
2017-11-30T11:30:59.898Z,3.81
2017-11-30T11:31:59.871Z,3.87
2017-11-30T11:32:59.849Z,3.76
2017-11-30T11:33:59.822Z,3.77
2017-11-30T11:34:59.827Z,3.78
2017-11-30T11:35:59.774Z,3.86
2017-11-30T11:36:59.747Z,3.77
2017-11-30T11:37:59.739Z,3.77
2017-11-30T11:38:59.702Z,3.80
2017-11-30T11:39:59.670Z,3.78
2017-11-30T11:40:59.644Z,3.78
2017-11-30T11:41:59.619Z,3.74
2017-11-30T11:42:59.595Z,3.81
2017-11-30T11:43:59.567Z,3.86
2017-11-30T11:44:59.548Z,3.78
2017-11-30T11:45:59.518Z,3.73
2017-11-30T11:46:59.512Z,3.87
2017-11-30T11:47:59.466Z,3.87
2017-11-30T11:48:59.441Z,3.80
2017-11-30T11:49:59.419Z,3.84
2017-11-30T11:50:59.390Z,3.86
2017-11-30T11:51:59.365Z,3.84
2017-11-30T11:52:59.338Z,3.83
2017-11-30T11:53:59.311Z,3.80
2017-11-30T11:54:59.288Z,3.83
2017-11-30T11:55:59.319Z,3.86
2017-11-30T11:56:59.239Z,3.91
2017-11-30T11:57:59.210Z,3.95
2017-11-30T11:58:59.187Z,4.01
2017-11-30T11:59:59.161Z,4.01
2017-11-30T12:00:59.136Z,3.98
2017-11-30T12:01:59.109Z,4.08
2017-11-30T12:02:59.085Z,4.06
2017-11-30T12:03:59.085Z,4.17
2017-11-30T12:04:59.038Z,4.12
2017-11-30T12:05:59.010Z,4.23
2017-11-30T12:06:58.983Z,4.20
2017-11-30T12:07:58.972Z,4.14
2017-11-30T12:08:58.933Z,4.23
2017-11-30T12:09:58.909Z,4.28
2017-11-30T12:10:58.883Z,4.30
2017-11-30T12:11:58.860Z,4.16
2017-11-30T12:12:58.833Z,4.23
2017-11-30T12:13:58.809Z,4.16
2017-11-30T12:14:58.780Z,4.23
2017-11-30T12:15:58.760Z,4.10
2017-11-30T12:16:58.732Z,4.02
2017-11-30T12:17:58.707Z,4.10
2017-11-30T12:18:58.683Z,4.01
2017-11-30T12:19:58.662Z,4.10
2017-11-30T12:20:58.642Z,4.01
2017-11-30T12:21:58.609Z,4.01
2017-11-30T12:22:58.581Z,4.05
2017-11-30T12:23:58.557Z,4.02
2017-11-30T12:24:58.540Z,4.04
2017-11-30T12:25:58.508Z,3.98
2017-11-30T12:26:58.484Z,3.98
2017-11-30T12:27:58.472Z,4.01
2017-11-30T12:28:58.431Z,3.87
2017-11-30T12:29:58.408Z,4.05
2017-11-30T12:30:58.381Z,4.02
2017-11-30T12:31:58.358Z,3.99
2017-11-30T12:32:58.342Z,4.01
2017-11-30T12:33:58.314Z,4.02
2017-11-30T12:34:58.281Z,4.02
2017-11-30T12:35:58.256Z,4.08
2017-11-30T12:36:58.231Z,3.99
2017-11-30T12:37:58.206Z,4.06
2017-11-30T12:38:58.182Z,3.99
2017-11-30T12:39:58.157Z,4.02
2017-11-30T12:40:58.130Z,3.99
2017-11-30T12:41:58.103Z,4.01
2017-11-30T12:42:58.081Z,4.04
2017-11-30T12:43:58.054Z,4.04
2017-11-30T12:44:58.028Z,3.99
2017-11-30T12:45:58.001Z,4.08
2017-11-30T12:46:57.976Z,4.10
2017-11-30T12:47:57.952Z,4.23
2017-11-30T12:48:57.936Z,4.14
2017-11-30T12:49:57.901Z,4.31
2017-11-30T12:50:57.873Z,4.38
2017-11-30T12:51:57.849Z,4.42
2017-11-30T12:52:57.825Z,4.48
2017-11-30T12:53:57.799Z,4.56
2017-11-30T12:54:57.775Z,4.53
2017-11-30T12:55:57.749Z,4.45
2017-11-30T12:56:57.725Z,4.55
2017-11-30T12:57:57.706Z,4.53
2017-11-30T12:58:57.673Z,4.50
2017-11-30T12:59:57.646Z,4.53
2017-11-30T13:00:57.625Z,4.58
2017-11-30T13:01:57.605Z,4.53
2017-11-30T13:02:57.571Z,4.58
2017-11-30T13:03:57.547Z,4.56
2017-11-30T13:04:57.524Z,4.55
2017-11-30T13:05:57.499Z,4.58
2017-11-30T13:06:57.476Z,4.55
2017-11-30T13:07:57.447Z,4.58
2017-11-30T13:08:57.427Z,4.55
2017-11-30T13:09:57.399Z,4.58
2017-11-30T13:10:57.375Z,4.59
2017-11-30T13:11:57.350Z,4.59
2017-11-30T13:12:57.326Z,4.52
2017-11-30T13:13:57.302Z,4.45
2017-11-30T13:14:57.295Z,4.48
2017-11-30T13:15:57.272Z,4.45
2017-11-30T13:16:57.227Z,4.52
2017-11-30T13:17:57.205Z,4.53